Time;durP1;ratioP1;P1;durP2;ratioP2;P2;SDS_P1;SDS_P2;PMS_P1;PMS_P2;Temp;Humidity;BMP_temperature;BMP_pressure;BME280_temperature;BME280_humidity;BME280_pressure;Samples;Min_cycle;Max_cycle;Signal;HPM_P1;HPM_P2
2022/03/24 00:00:52;;;;;;;33.30;24.20;;;;;;;5.41;65.88;101685.75;5081676;28;20471;-67
2022/03/24 00:03:19;;;;;;;37.97;23.83;;;;;;;5.41;65.80;101678.63;5082231;28;20447;-67
2022/03/24 00:05:46;;;;;;;32.87;24.00;;;;;;;5.33;66.19;101675.50;5087857;28;20494;-68
2022/03/24 00:08:12;;;;;;;29.03;21.70;;;;;;;5.28;66.39;101670.41;5087842;28;21029;-68
2022/03/24 00:10:39;;;;;;;37.13;25.43;;;;;;;5.14;66.45;101667.53;5089524;28;20546;-67
2022/03/24 00:13:06;;;;;;;32.17;22.87;;;;;;;5.04;67.15;101676.84;5099675;28;20490;-67
2022/03/24 00:15:34;;;;;;;38.93;24.17;;;;;;;5.04;67.21;101667.09;5080681;28;20496;-67
2022/03/24 00:18:01;;;;;;;38.30;26.57;;;;;;;5.06;67.01;101665.22;5080855;28;20472;-67
2022/03/24 00:20:28;;;;;;;34.30;24.47;;;;;;;4.96;67.28;101669.22;5064945;28;20486;-67
2022/03/24 00:22:55;;;;;;;35.40;25.03;;;;;;;5.04;67.02;101666.25;5081176;28;20458;-67
2022/03/24 00:25:21;;;;;;;40.00;26.20;;;;;;;5.11;66.67;101662.38;5095311;28;20476;-67
2022/03/24 00:27:48;;;;;;;38.50;26.37;;;;;;;5.12;66.55;101668.53;5086151;28;20475;-67
2022/03/24 00:30:15;;;;;;;36.53;25.23;;;;;;;5.17;66.31;101664.72;5093865;28;20447;-67
2022/03/24 00:32:43;;;;;;;37.20;26.40;;;;;;;5.24;65.92;101666.19;5101327;28;20465;-67
2022/03/24 00:35:10;;;;;;;37.70;25.13;;;;;;;5.23;65.81;101672.41;5090239;28;20447;-67
2022/03/24 00:37:37;;;;;;;41.10;25.53;;;;;;;5.24;66.08;101660.88;5082209;28;20506;-67
2022/03/24 00:40:07;;;;;;;37.30;23.83;;;;;;;5.16;66.12;101660.38;5082943;28;20950;-67
2022/03/24 00:42:35;;;;;;;39.20;25.77;;;;;;;5.18;65.52;101660.31;5090106;28;20462;-67
2022/03/24 00:45:03;;;;;;;37.10;25.40;;;;;;;5.18;65.57;101663.81;5093860;28;21016;-67
2022/03/24 00:47:29;;;;;;;39.63;25.13;;;;;;;5.10;66.09;101657.97;5079504;28;20529;-67
2022/03/24 00:49:57;;;;;;;36.47;25.77;;;;;;;4.97;66.15;101649.75;5079241;28;20456;-67
2022/03/24 00:52:24;;;;;;;39.10;26.77;;;;;;;4.93;66.06;101648.19;5081681;28;20476;-67
2022/03/24 00:54:51;;;;;;;41.33;27.33;;;;;;;4.95;66.19;101656.91;5078667;28;20484;-67
2022/03/24 00:57:17;;;;;;;34.93;24.57;;;;;;;4.84;67.20;101649.47;5069212;28;20507;-68
2022/03/24 00:59:44;;;;;;;38.00;23.00;;;;;;;4.78;67.51;101652.38;5060132;28;20457;-68
2022/03/24 01:02:11;;;;;;;36.77;23.40;;;;;;;4.73;67.73;101654.34;5061223;28;20919;-67
2022/03/24 01:04:38;;;;;;;30.70;21.27;;;;;;;4.76;67.70;101653.38;5075929;28;20476;-67
2022/03/24 01:07:06;;;;;;;33.87;23.20;;;;;;;4.69;67.98;101656.28;5059221;28;20804;-67
2022/03/24 01:09:33;;;;;;;33.40;22.50;;;;;;;4.72;67.85;101647.31;5067324;28;20734;-67
2022/03/24 01:12:02;;;;;;;35.53;22.60;;;;;;;4.72;67.80;101645.56;5077790;28;20479;-67
2022/03/24 01:14:32;;;;;;;33.43;23.20;;;;;;;4.65;68.14;101643.25;5067145;28;20457;-68
2022/03/24 01:17:01;;;;;;;34.60;23.67;;;;;;;4.59;68.20;101643.53;5060071;28;20484;-67
2022/03/24 01:19:28;;;;;;;29.23;20.73;;;;;;;4.59;67.96;101640.88;5059697;28;20455;-67
2022/03/24 01:21:54;;;;;;;35.37;22.60;;;;;;;4.55;67.79;101636.63;5060799;28;20499;-67
2022/03/24 01:24:22;;;;;;;33.50;23.03;;;;;;;4.47;68.43;101640.47;5065073;28;20454;-67
2022/03/24 01:26:49;;;;;;;37.97;23.63;;;;;;;4.39;68.84;101637.28;5075231;28;20480;-67
2022/03/24 01:29:16;;;;;;;32.73;22.50;;;;;;;4.34;69.11;101634.00;5070629;28;20456;-67
2022/03/24 01:31:43;;;;;;;33.70;21.90;;;;;;;4.27;69.42;101636.06;5076912;28;20460;-67
2022/03/24 01:34:11;;;;;;;35.60;23.80;;;;;;;4.30;69.49;101627.97;5074784;28;20503;-66
2022/03/24 01:36:38;;;;;;;30.73;21.43;;;;;;;4.39;69.35;101625.84;5068512;28;20480;-68
2022/03/24 01:39:05;;;;;;;34.37;23.20;;;;;;;4.41;69.11;101630.16;5060235;28;20464;-67
2022/03/24 01:41:33;;;;;;;33.13;21.87;;;;;;;4.42;69.10;101633.66;5059162;28;20484;-66
2022/03/24 01:44:00;;;;;;;31.37;21.37;;;;;;;4.32;69.32;101627.91;5060137;28;20457;-66
2022/03/24 01:46:26;;;;;;;35.67;23.83;;;;;;;4.29;69.38;101626.25;5059836;28;20472;-66
2022/03/24 01:48:53;;;;;;;37.13;21.73;;;;;;;4.29;69.13;101625.41;5068036;28;20444;-66
2022/03/24 01:51:20;;;;;;;35.83;22.50;;;;;;;4.31;69.19;101628.84;5077881;28;20500;-66
2022/03/24 01:53:46;;;;;;;30.53;21.00;;;;;;;4.31;69.18;101621.75;5069750;28;20441;-66
2022/03/24 01:56:14;;;;;;;30.50;20.80;;;;;;;4.23;69.35;101623.00;5089720;28;20478;-66
2022/03/24 01:58:42;;;;;;;33.27;23.40;;;;;;;4.15;69.54;101623.34;5083311;28;20551;-66
2022/03/24 02:01:28;;;;;;;34.10;24.43;;;;;;;4.14;68.88;101616.31;5094995;28;20524;-66
2022/03/24 02:03:56;;;;;;;35.63;23.17;;;;;;;4.13;69.03;101631.34;5086660;28;20439;-66
2022/03/24 02:06:22;;;;;;;31.40;22.53;;;;;;;4.14;69.27;101614.53;5082945;28;20503;-66
2022/03/24 02:08:49;;;;;;;30.00;21.83;;;;;;;4.17;69.19;101613.56;5083877;28;20795;-66
2022/03/24 02:11:16;;;;;;;29.67;20.80;;;;;;;4.18;69.01;101617.06;5090082;28;20505;-66
2022/03/24 02:13:44;;;;;;;30.37;22.60;;;;;;;4.19;69.44;101616.13;5100986;28;20830;-66
2022/03/24 02:16:11;;;;;;;32.97;21.50;;;;;;;4.15;69.64;101618.91;5093776;28;20511;-66
2022/03/24 02:18:39;;;;;;;36.60;22.20;;;;;;;4.06;69.88;101621.97;5083917;28;20577;-66
2022/03/24 02:21:06;;;;;;;34.90;21.00;;;;;;;3.98;70.20;101613.47;5081659;28;20494;-66
2022/03/24 02:23:34;;;;;;;32.13;21.83;;;;;;;3.98;70.30;101616.13;5084280;28;20435;-66
2022/03/24 02:26:01;;;;;;;33.87;22.83;;;;;;;4.03;70.14;101615.91;5093052;28;20514;-66
2022/03/24 02:28:28;;;;;;;30.60;22.47;;;;;;;4.01;70.10;101612.47;5098438;28;20467;-66
2022/03/24 02:30:55;;;;;;;40.30;23.40;;;;;;;3.94;70.30;101614.50;5090093;28;20472;-67
2022/03/24 02:33:22;;;;;;;35.57;22.07;;;;;;;3.77;71.03;101608.16;5084086;28;20436;-67
2022/03/24 02:35:49;;;;;;;31.43;22.10;;;;;;;3.67;71.27;101621.81;5081765;28;20471;-68
2022/03/24 02:38:16;;;;;;;34.00;22.73;;;;;;;3.61;71.58;101614.13;5083713;28;20480;-68
2022/03/24 02:40:45;;;;;;;38.00;24.00;;;;;;;3.67;71.49;101611.25;5082543;28;20994;-67
2022/03/24 02:43:12;;;;;;;32.33;21.80;;;;;;;3.65;71.22;101610.44;5093666;28;20459;-67
2022/03/24 02:45:39;;;;;;;33.20;21.97;;;;;;;3.66;71.11;101618.28;5101152;28;20494;-68
2022/03/24 02:48:07;;;;;;;33.80;23.90;;;;;;;3.67;71.14;101616.53;5086045;28;20456;-67
2022/03/24 02:50:34;;;;;;;31.30;22.63;;;;;;;3.67;70.89;101622.66;5094873;28;20464;-67
2022/03/24 02:53:01;;;;;;;33.63;22.63;;;;;;;3.60;71.08;101621.19;5086688;28;20455;-68
2022/03/24 02:55:28;;;;;;;38.57;24.70;;;;;;;3.53;71.40;101617.09;5095513;28;21027;-68
2022/03/24 02:57:56;;;;;;;34.63;21.30;;;;;;;3.49;71.76;101616.34;5084322;28;20486;-67
2022/03/24 03:00:25;;;;;;;33.93;22.33;;;;;;;3.44;72.05;101614.78;5082689;28;20456;-68
2022/03/24 03:02:52;;;;;;;36.10;23.30;;;;;;;3.37;72.06;101607.13;5086019;28;20444;-67
2022/03/24 03:05:19;;;;;;;33.33;22.17;;;;;;;3.31;72.26;101619.72;5082476;28;20474;-67
2022/03/24 03:07:46;;;;;;;38.77;24.77;;;;;;;3.30;71.91;101612.69;5096294;28;20447;-68
2022/03/24 03:10:13;;;;;;;35.17;22.60;;;;;;;3.27;71.85;101613.69;5085620;28;20459;-67
2022/03/24 03:12:40;;;;;;;34.67;23.07;;;;;;;3.38;71.68;101622.03;5081525;28;20448;-66
2022/03/24 03:15:09;;;;;;;41.70;26.10;;;;;;;3.41;71.42;101625.50;5080279;28;20436;-67
2022/03/24 03:17:36;;;;;;;33.70;23.33;;;;;;;3.42;71.22;101612.22;5082141;28;20479;-67
2022/03/24 03:20:03;;;;;;;34.80;23.50;;;;;;;3.42;71.16;101621.94;5090783;28;20466;-67
2022/03/24 03:22:30;;;;;;;35.70;23.10;;;;;;;3.36;71.37;101615.97;5097950;28;20787;-68
2022/03/24 03:24:57;;;;;;;36.97;25.20;;;;;;;3.38;71.15;101613.25;5095114;28;20442;-67
2022/03/24 03:27:24;;;;;;;31.50;22.67;;;;;;;3.39;70.75;101615.84;5085621;28;20503;-67
2022/03/24 03:29:51;;;;;;;35.43;24.13;;;;;;;3.38;70.70;101607.97;5098454;28;20761;-68
2022/03/24 03:32:21;;;;;;;34.07;23.50;;;;;;;3.41;70.96;101612.28;5087566;28;20540;-68
2022/03/24 03:34:48;;;;;;;34.70;24.23;;;;;;;3.41;71.22;101610.50;5089345;28;20448;-66
2022/03/24 03:37:16;;;;;;;35.07;22.13;;;;;;;3.32;71.26;101613.50;5082109;28;20495;-67
2022/03/24 03:39:42;;;;;;;39.40;24.53;;;;;;;3.25;71.14;101610.25;5082525;28;20507;-66
2022/03/24 03:42:09;;;;;;;35.77;23.13;;;;;;;3.17;71.52;101609.69;5080682;28;20492;-66
2022/03/24 03:44:36;;;;;;;38.60;25.17;;;;;;;3.20;71.58;101612.22;5098736;28;20478;-66
2022/03/24 03:47:03;;;;;;;35.47;25.30;;;;;;;3.22;71.61;101610.38;5099640;28;20514;-66
2022/03/24 03:49:31;;;;;;;34.80;23.90;;;;;;;3.25;71.67;101604.13;5084286;28;20448;-66
2022/03/24 03:51:58;;;;;;;37.30;24.10;;;;;;;3.19;71.87;101605.19;5084799;28;20468;-67
2022/03/24 03:54:26;;;;;;;34.10;22.80;;;;;;;3.20;71.83;101612.22;5082865;28;20487;-66
2022/03/24 03:56:53;;;;;;;30.13;22.10;;;;;;;3.10;71.95;101605.56;5081685;28;20491;-67
2022/03/24 03:59:20;;;;;;;34.03;21.30;;;;;;;2.92;72.35;101615.06;5080930;28;20451;-67
2022/03/24 04:01:47;;;;;;;33.00;22.23;;;;;;;2.96;72.24;101616.66;5082134;28;21073;-68
2022/03/24 04:04:14;;;;;;;34.17;21.83;;;;;;;2.89;72.49;101610.72;5080495;28;20440;-68
2022/03/24 04:06:42;;;;;;;33.40;22.20;;;;;;;2.91;72.36;101611.53;5089944;28;20478;-67
2022/03/24 04:09:09;;;;;;;29.87;21.10;;;;;;;2.96;71.77;101614.00;5100920;28;20867;-67
2022/03/24 04:11:36;;;;;;;35.90;21.43;;;;;;;2.95;71.66;101607.88;5091777;28;20485;-66
2022/03/24 04:14:03;;;;;;;32.90;21.30;;;;;;;2.90;71.91;101614.22;5080390;28;20505;-67
2022/03/24 04:16:30;;;;;;;35.27;23.00;;;;;;;2.79;72.28;101612.84;5085551;28;20717;-66
2022/03/24 04:18:57;;;;;;;29.73;20.83;;;;;;;2.78;72.42;101618.22;5079961;28;20526;-66
2022/03/24 04:21:43;;;;;;;33.97;22.10;;;;;;;2.74;72.48;101613.94;5079947;28;20521;-66
2022/03/24 04:24:10;;;;;;;35.97;21.50;;;;;;;2.66;72.64;101614.25;5083693;28;20503;-66
2022/03/24 04:26:37;;;;;;;33.87;22.30;;;;;;;2.61;72.72;101614.41;5100004;28;20490;-66
2022/03/24 04:29:04;;;;;;;39.40;23.60;;;;;;;2.60;72.58;101610.06;5099113;28;20458;-67
2022/03/24 04:31:30;;;;;;;28.33;20.83;;;;;;;2.62;72.45;101618.78;5079992;28;20494;-68
2022/03/24 04:33:57;;;;;;;41.37;23.93;;;;;;;2.50;72.84;101611.31;5088811;28;20502;-68
2022/03/24 04:36:24;;;;;;;31.13;21.70;;;;;;;2.56;72.98;101618.97;5094977;28;20475;-67
2022/03/24 04:38:52;;;;;;;33.90;23.37;;;;;;;2.55;73.18;101608.47;5100923;28;20558;-67
2022/03/24 04:41:19;;;;;;;35.53;21.70;;;;;;;2.50;73.34;101613.06;5097757;28;20481;-67
2022/03/24 04:43:45;;;;;;;34.00;22.40;;;;;;;2.52;73.11;101617.38;5100258;28;20451;-67
2022/03/24 04:46:12;;;;;;;37.87;25.50;;;;;;;2.35;73.68;101607.41;5099014;28;20947;-68
2022/03/24 04:48:39;;;;;;;41.07;25.60;;;;;;;2.23;74.05;101607.84;5100338;28;20502;-67
2022/03/24 04:51:07;;;;;;;36.00;22.97;;;;;;;2.25;74.42;101609.50;5095267;28;20472;-67
2022/03/24 04:53:34;;;;;;;38.10;24.43;;;;;;;2.27;74.47;101612.09;5095817;28;20469;-67
2022/03/24 04:56:02;;;;;;;38.00;24.80;;;;;;;2.40;74.16;101609.91;5077687;28;20525;-67
2022/03/24 04:58:29;;;;;;;41.93;26.40;;;;;;;2.53;73.64;101616.44;5074912;28;20479;-67
2022/03/24 05:00:56;;;;;;;42.50;26.07;;;;;;;2.59;73.03;101612.75;5078754;28;20483;-66
2022/03/24 05:03:23;;;;;;;42.83;25.07;;;;;;;2.65;72.51;101615.13;5063842;28;20441;-66
2022/03/24 05:05:50;;;;;;;42.53;26.27;;;;;;;2.66;72.45;101616.00;5059634;28;20592;-67
2022/03/24 05:08:16;;;;;;;46.03;26.17;;;;;;;2.62;72.46;101612.59;5065158;28;20459;-66
2022/03/24 05:10:43;;;;;;;38.73;25.10;;;;;;;2.54;72.62;101614.69;5072704;28;20515;-67
2022/03/24 05:13:11;;;;;;;42.30;25.50;;;;;;;2.52;72.48;101620.03;5040043;28;20453;-66
2022/03/24 05:15:38;;;;;;;45.03;26.60;;;;;;;2.55;72.35;101611.09;5046351;28;20472;-67
2022/03/24 05:18:05;;;;;;;43.60;26.03;;;;;;;2.56;72.51;101618.97;5059849;28;20487;-67
2022/03/24 05:20:32;;;;;;;39.30;25.60;;;;;;;2.53;72.29;101615.59;5061280;28;20471;-68
2022/03/24 05:22:58;;;;;;;42.13;25.93;;;;;;;2.55;72.05;101614.63;5074102;28;20853;-67
2022/03/24 05:25:26;;;;;;;38.23;25.33;;;;;;;2.63;72.09;101617.84;5064657;28;20453;-70
2022/03/24 05:27:52;;;;;;;35.50;23.20;;;;;;;2.63;72.47;101616.97;5062223;28;20452;-69
2022/03/24 05:30:21;;;;;;;41.63;25.40;;;;;;;2.72;72.57;101616.63;5054024;28;20491;-69
2022/03/24 05:32:47;;;;;;;43.23;25.03;;;;;;;2.83;72.35;101617.13;5055480;28;20445;-69
2022/03/24 05:35:14;;;;;;;36.13;23.60;;;;;;;2.72;72.47;101619.28;5063084;28;21140;-69
2022/03/24 05:37:41;;;;;;;36.97;22.80;;;;;;;2.76;72.23;101614.75;5073768;28;20526;-69
2022/03/24 05:40:09;;;;;;;37.53;23.87;;;;;;;2.84;71.97;101617.97;5062904;28;21006;-69
2022/03/24 05:42:35;;;;;;;43.27;24.17;;;;;;;2.91;71.46;101616.81;5076302;28;20459;-69
2022/03/24 05:45:02;;;;;;;38.07;25.13;;;;;;;2.67;71.67;101618.59;5082854;28;20455;-69
2022/03/24 05:47:31;;;;;;;38.77;24.00;;;;;;;2.76;71.18;101612.97;5080474;28;20509;-69
2022/03/24 05:49:58;;;;;;;37.13;22.60;;;;;;;2.82;70.93;101611.88;5082279;28;20530;-69
2022/03/24 05:52:24;;;;;;;39.90;24.13;;;;;;;2.95;70.66;101621.09;5068788;28;20483;-69
2022/03/24 05:54:51;;;;;;;38.20;24.33;;;;;;;3.13;70.05;101614.22;5077276;28;20547;-69
2022/03/24 05:57:18;;;;;;;35.70;22.67;;;;;;;3.28;69.56;101615.44;5093343;28;20498;-69
2022/03/24 05:59:45;;;;;;;33.93;23.00;;;;;;;3.38;69.22;101622.03;5094841;28;20472;-69
2022/03/24 06:02:13;;;;;;;33.90;23.07;;;;;;;3.66;68.66;101618.28;5092970;28;20551;-69
2022/03/24 06:04:42;;;;;;;35.40;22.03;;;;;;;4.12;67.34;101626.97;5092776;28;20550;-69
2022/03/24 06:07:10;;;;;;;32.67;22.80;;;;;;;4.78;64.92;101620.56;5075570;28;20479;-69
2022/03/24 06:09:37;;;;;;;36.07;22.90;;;;;;;5.55;62.34;101621.41;5083134;28;20454;-69
2022/03/24 06:12:04;;;;;;;29.60;21.57;;;;;;;6.54;59.07;101620.00;5083796;28;20816;-69
2022/03/24 06:14:31;;;;;;;33.40;21.53;;;;;;;7.31;55.94;101622.03;5084940;28;20985;-69
2022/03/24 06:16:57;;;;;;;29.73;22.17;;;;;;;7.51;54.69;101620.88;5082516;28;20475;-70
2022/03/24 06:19:24;;;;;;;33.23;21.40;;;;;;;7.59;54.24;101620.47;5089061;28;20506;-70
2022/03/24 06:21:52;;;;;;;30.57;21.20;;;;;;;7.64;53.93;101621.06;5080417;28;20471;-69
2022/03/24 06:24:19;;;;;;;30.57;21.37;;;;;;;8.13;52.57;101622.66;5089897;28;20435;-69
2022/03/24 06:26:46;;;;;;;31.27;23.10;;;;;;;8.93;50.69;101620.50;5091539;28;20486;-69
2022/03/24 06:29:13;;;;;;;35.00;21.80;;;;;;;9.40;48.61;101621.09;5082609;28;20458;-69
2022/03/24 06:31:40;;;;;;;28.00;20.60;;;;;;;9.13;49.18;101627.25;5082592;28;20652;-69
2022/03/24 06:34:07;;;;;;;30.67;22.87;;;;;;;9.26;48.69;101621.13;5097828;28;20504;-69
2022/03/24 06:36:34;;;;;;;29.83;21.97;;;;;;;8.93;49.22;101624.97;5084758;28;20586;-69
2022/03/24 06:39:02;;;;;;;27.13;21.53;;;;;;;8.75;50.45;101633.16;5082434;28;20503;-69
2022/03/24 06:41:29;;;;;;;27.43;22.87;;;;;;;9.29;49.91;101636.91;5081388;28;20480;-69
2022/03/24 06:43:57;;;;;;;31.70;23.43;;;;;;;9.71;49.19;101643.13;5080929;28;20451;-70
2022/03/24 06:46:24;;;;;;;31.53;25.50;;;;;;;11.12;44.61;101633.44;5081623;28;20552;-70
2022/03/24 06:48:51;;;;;;;30.90;25.50;;;;;;;10.52;45.80;101632.31;5082150;28;20473;-70
2022/03/24 06:51:17;;;;;;;30.33;25.13;;;;;;;11.61;44.13;101631.72;5081731;28;20510;-69
2022/03/24 06:53:44;;;;;;;28.67;23.80;;;;;;;13.58;39.77;101636.22;5082356;28;21023;-70
2022/03/24 06:56:12;;;;;;;32.57;26.30;;;;;;;12.00;42.30;101631.56;5093688;28;20561;-70
2022/03/24 06:58:39;;;;;;;31.40;24.90;;;;;;;11.49;43.89;101629.91;5102107;28;20981;-69
2022/03/24 07:01:06;;;;;;;29.70;26.47;;;;;;;11.78;43.19;101632.28;5102767;28;20481;-70
2022/03/24 07:03:33;;;;;;;33.67;27.00;;;;;;;11.84;42.80;101634.50;5103839;28;20431;-70
2022/03/24 07:05:59;;;;;;;30.47;24.90;;;;;;;12.68;40.66;101632.56;5081565;28;20507;-70
2022/03/24 07:08:26;;;;;;;29.17;26.13;;;;;;;13.59;39.03;101637.91;5082625;28;20447;-70
2022/03/24 07:10:53;;;;;;;32.27;25.77;;;;;;;13.04;39.90;101633.31;5099387;28;20475;-70
2022/03/24 07:13:21;;;;;;;33.40;26.83;;;;;;;13.24;38.91;101636.22;5099764;28;20459;-69
2022/03/24 07:15:48;;;;;;;30.93;27.70;;;;;;;12.97;38.81;101641.00;5100022;28;20477;-70
2022/03/24 07:18:15;;;;;;;29.40;26.23;;;;;;;13.78;37.20;101646.13;5098791;28;20761;-70
2022/03/24 07:20:42;;;;;;;29.70;26.23;;;;;;;13.88;36.85;101655.16;5098965;28;20985;-70
2022/03/24 07:23:09;;;;;;;33.83;26.80;;;;;;;14.00;36.77;101650.59;5099854;28;20427;-70
2022/03/24 07:25:37;;;;;;;31.10;25.87;;;;;;;13.81;37.17;101655.81;5099155;28;20998;-70
2022/03/24 07:28:05;;;;;;;30.80;27.50;;;;;;;14.16;37.17;101652.84;5099632;28;20477;-70
2022/03/24 07:30:33;;;;;;;29.30;26.20;;;;;;;15.40;34.30;101656.50;5098789;28;20486;-70
2022/03/24 07:33:01;;;;;;;30.63;26.90;;;;;;;15.56;33.82;101648.75;5098976;28;20442;-70
2022/03/24 07:35:29;;;;;;;29.17;25.83;;;;;;;15.07;35.16;101647.75;5097633;28;20462;-70
2022/03/24 07:37:56;;;;;;;32.03;28.10;;;;;;;14.42;36.05;101658.69;5078934;28;20472;-70
2022/03/24 07:40:23;;;;;;;31.83;25.60;;;;;;;15.04;35.61;101661.50;5078237;28;20450;-71
2022/03/24 07:42:52;;;;;;;29.90;26.80;;;;;;;15.05;34.49;101663.16;5079128;28;20443;-70
2022/03/24 07:45:19;;;;;;;32.70;27.80;;;;;;;14.91;35.00;101655.47;5089554;28;20478;-69
2022/03/24 07:48:11;;;;;;;30.00;26.57;;;;;;;17.18;31.82;101666.06;5100175;28;20851;-70
2022/03/24 07:50:40;;;;;;;36.30;27.27;;;;;;;16.33;32.57;101665.13;5093714;28;20486;-70
2022/03/24 07:53:21;;;;;;;33.57;29.47;;;;;;;15.73;32.63;101670.63;5079457;28;20424;-70
2022/03/24 07:55:48;;;;;;;33.97;29.03;;;;;;;15.81;32.13;101671.69;5077569;28;20476;-70
2022/03/24 07:58:17;;;;;;;33.50;30.13;;;;;;;16.18;31.68;101668.28;5093722;28;21389;-71
2022/03/24 08:00:44;;;;;;;31.63;28.43;;;;;;;16.43;31.20;101676.78;5077925;28;20463;-71
2022/03/24 08:03:13;;;;;;;31.90;27.97;;;;;;;16.60;31.11;101671.66;5078712;28;20471;-71
2022/03/24 08:05:40;;;;;;;32.47;28.97;;;;;;;18.02;28.89;101672.28;5077775;28;20476;-71
2022/03/24 08:08:07;;;;;;;31.73;28.50;;;;;;;18.29;27.80;101673.19;5078423;28;21014;-70
2022/03/24 08:10:34;;;;;;;30.77;27.77;;;;;;;17.65;29.12;101675.91;5091900;28;20479;-70
2022/03/24 08:13:01;;;;;;;32.93;29.33;;;;;;;17.31;29.19;101671.97;5098565;28;20482;-71
2022/03/24 08:15:27;;;;;;;32.40;28.00;;;;;;;17.77;28.04;101679.25;5098037;28;21104;-71
2022/03/24 08:17:54;;;;;;;33.27;29.73;;;;;;;18.44;27.79;101674.34;5098681;28;20477;-70
2022/03/24 08:20:23;;;;;;;33.87;29.70;;;;;;;18.49;27.32;101676.56;5097014;28;20528;-71
2022/03/24 08:22:50;;;;;;;31.60;28.47;;;;;;;18.37;26.77;101676.81;5097651;28;20432;-70
2022/03/24 08:25:17;;;;;;;33.03;29.57;;;;;;;19.07;26.19;101675.09;5092328;28;20451;-70
2022/03/24 08:27:44;;;;;;;31.87;28.40;;;;;;;18.58;27.38;101672.91;5082405;28;21102;-70
2022/03/24 08:30:12;;;;;;;32.40;28.90;;;;;;;17.56;28.51;101674.97;5093762;28;20473;-70
2022/03/24 08:32:39;;;;;;;32.37;28.70;;;;;;;17.77;28.97;101677.41;5097930;28;20522;-71
2022/03/24 08:35:06;;;;;;;33.23;29.53;;;;;;;17.45;29.28;101686.00;5098375;28;20455;-71
2022/03/24 08:37:35;;;;;;;31.33;28.13;;;;;;;18.95;26.88;101669.09;5081027;28;20460;-70
2022/03/24 08:40:01;;;;;;;32.10;28.77;;;;;;;19.86;26.06;101673.88;5086933;28;20487;-70
2022/03/24 08:42:28;;;;;;;31.30;27.40;;;;;;;19.42;26.46;101670.50;5097171;28;20479;-71
2022/03/24 08:44:55;;;;;;;33.27;29.10;;;;;;;20.90;24.67;101676.06;5090024;28;20462;-71
2022/03/24 08:47:21;;;;;;;31.67;28.47;;;;;;;21.00;24.37;101679.44;5077662;28;21010;-70
2022/03/24 08:49:48;;;;;;;33.00;29.50;;;;;;;19.86;26.39;101679.31;5076205;28;21069;-71
2022/03/24 08:52:15;;;;;;;32.30;28.50;;;;;;;20.37;26.19;101672.91;5085849;28;21125;-71
2022/03/24 08:54:43;;;;;;;32.37;29.13;;;;;;;18.63;28.67;101678.72;5097149;28;20490;-71
2022/03/24 08:57:10;;;;;;;32.77;29.50;;;;;;;19.08;27.90;101677.66;5097429;28;20479;-71
2022/03/24 08:59:37;;;;;;;30.97;27.87;;;;;;;20.81;26.00;101681.53;5097284;28;21145;-71
2022/03/24 09:02:05;;;;;;;32.20;28.13;;;;;;;21.62;24.78;101679.56;5097964;28;20471;-71
2022/03/24 09:04:31;;;;;;;32.43;28.97;;;;;;;21.23;25.32;101676.81;5097675;28;20877;-71
2022/03/24 09:06:58;;;;;;;30.83;27.50;;;;;;;21.29;25.77;101672.56;5085621;28;20489;-71
2022/03/24 09:09:25;;;;;;;31.60;28.43;;;;;;;20.95;25.19;101690.00;5077745;28;20454;-71
2022/03/24 09:11:53;;;;;;;30.27;26.93;;;;;;;21.85;22.99;101681.47;5076088;28;20494;-72
2022/03/24 09:14:20;;;;;;;31.70;28.30;;;;;;;22.90;21.61;101688.94;5077333;28;20474;-71
2022/03/24 09:16:47;;;;;;;36.80;27.53;;;;;;;22.17;22.69;101691.28;5084243;28;20474;-70
2022/03/24 09:19:14;;;;;;;28.13;25.07;;;;;;;22.71;21.62;101690.31;5096466;28;20479;-71
2022/03/24 09:21:40;;;;;;;31.30;26.67;;;;;;;21.50;23.68;101683.69;5096969;28;20736;-71
2022/03/24 09:24:08;;;;;;;31.63;26.90;;;;;;;23.43;22.33;101688.00;5098039;28;20438;-71
2022/03/24 09:26:36;;;;;;;31.40;26.67;;;;;;;22.54;22.46;101694.25;5093389;28;20502;-71
2022/03/24 09:29:04;;;;;;;31.60;27.10;;;;;;;22.29;23.09;101688.16;5075714;28;20460;-70
2022/03/24 09:31:31;;;;;;;32.30;27.10;;;;;;;23.08;22.37;101685.03;5096347;28;21212;-70
2022/03/24 09:33:57;;;;;;;31.07;27.67;;;;;;;23.22;21.98;101686.91;5095682;28;20459;-70
2022/03/24 09:36:24;;;;;;;34.23;27.53;;;;;;;23.56;20.96;101685.44;5076959;28;20517;-69
2022/03/24 09:38:51;;;;;;;32.87;28.70;;;;;;;22.12;23.12;101685.53;5076828;28;20499;-69
2022/03/24 09:41:20;;;;;;;29.37;26.27;;;;;;;22.36;23.12;101692.69;5082812;28;20467;-70
2022/03/24 09:43:47;;;;;;;33.97;29.17;;;;;;;22.07;23.37;101690.69;5096363;28;20450;-69
2022/03/24 09:46:15;;;;;;;31.57;28.27;;;;;;;23.80;21.76;101672.47;5096602;28;20474;-71
2022/03/24 09:48:42;;;;;;;31.17;27.90;;;;;;;24.16;21.14;101690.75;5097440;28;20466;-72
2022/03/24 09:51:09;;;;;;;31.63;28.03;;;;;;;23.91;20.78;101674.72;5096420;28;20475;-69
2022/03/24 09:53:39;;;;;;;31.77;27.30;;;;;;;23.59;21.13;101681.47;5097123;28;20447;-69
2022/03/24 09:56:06;;;;;;;34.73;28.00;;;;;;;23.08;21.82;101693.22;5079758;28;20488;-70
2022/03/24 09:58:32;;;;;;;31.47;27.50;;;;;;;22.86;22.08;101689.50;5076889;28;20444;-70
2022/03/24 10:01:01;;;;;;;30.33;26.67;;;;;;;23.20;21.77;101693.59;5076597;28;21014;-69
2022/03/24 10:03:29;;;;;;;30.10;26.90;;;;;;;22.79;22.72;101689.38;5077612;28;20425;-69
2022/03/24 10:05:58;;;;;;;32.20;26.90;;;;;;;21.75;23.02;101678.13;5081700;28;20482;-69
2022/03/24 10:08:25;;;;;;;30.60;27.50;;;;;;;22.25;23.02;101681.34;5080232;28;20428;-70
2022/03/24 10:10:57;;;;;;;29.60;26.43;;;;;;;23.94;20.22;101679.81;5073848;28;20472;-70
2022/03/24 10:13:25;;;;;;;29.73;26.60;;;;;;;24.10;20.70;101675.97;5078782;28;20444;-70
2022/03/24 10:15:52;;;;;;;32.37;27.33;;;;;;;22.95;21.69;101672.03;5078368;28;20476;-70
2022/03/24 10:18:19;;;;;;;30.30;25.63;;;;;;;23.95;20.49;101676.03;5078784;28;20463;-70
2022/03/24 10:20:47;;;;;;;29.50;26.50;;;;;;;24.58;19.61;101672.63;5078827;28;20885;-70
2022/03/24 10:23:14;;;;;;;33.23;26.13;;;;;;;24.68;19.22;101673.13;5080346;28;20915;-70
2022/03/24 10:25:43;;;;;;;28.53;25.33;;;;;;;23.03;20.64;101671.91;5082170;28;20495;-69
2022/03/24 10:28:11;;;;;;;30.13;26.00;;;;;;;22.62;21.46;101668.78;5085924;28;20440;-70
2022/03/24 10:30:49;;;;;;;38.20;26.63;;;;;;;22.26;22.53;101675.72;5087458;28;20471;-69
2022/03/24 10:33:29;;;;;;;29.87;26.80;;;;;;;24.19;20.95;101669.31;5084286;28;20851;-70
2022/03/24 10:36:09;;;;;;;31.83;26.53;;;;;;;25.13;17.93;101679.06;5083721;28;20489;-70
2022/03/24 10:38:39;;;;;;;34.90;26.20;;;;;;;25.16;18.13;101677.84;5082908;28;20503;-70
2022/03/24 10:41:16;;;;;;;28.60;25.00;;;;;;;25.04;18.46;101661.16;5081730;28;20510;-70
2022/03/24 10:43:43;;;;;;;26.13;23.43;;;;;;;25.03;17.04;101669.56;5092658;28;20438;-70
2022/03/24 10:46:15;;;;;;;27.43;23.50;;;;;;;24.85;17.20;101664.63;5102863;28;20852;-69
2022/03/24 10:48:42;;;;;;;27.50;23.33;;;;;;;24.34;18.10;101660.19;5091524;28;20571;-70
2022/03/24 10:51:10;;;;;;;30.37;20.93;;;;;;;24.55;16.82;101665.66;5058720;28;20715;-70
2022/03/24 10:53:41;;;;;;;24.63;22.13;;;;;;;24.41;17.84;101663.84;5060654;28;20527;-70
2022/03/24 10:56:12;;;;;;;27.67;21.60;;;;;;;25.79;17.53;101661.25;5074975;28;20475;-70
2022/03/24 10:58:42;;;;;;;26.30;23.63;;;;;;;25.36;17.71;101656.06;5099303;28;20455;-70
2022/03/24 11:01:10;;;;;;;21.17;17.63;;;;;;;25.43;15.38;101647.88;5099018;28;20509;-70
2022/03/24 11:03:38;;;;;;;20.80;18.00;;;;;;;25.45;16.34;101645.75;5085805;28;20479;-70
2022/03/24 11:06:07;;;;;;;23.83;21.37;;;;;;;24.90;17.09;101656.66;5079037;28;20479;-70
2022/03/24 11:08:35;;;;;;;30.67;18.80;;;;;;;25.35;15.36;101657.13;5092892;28;20447;-70
2022/03/24 11:11:06;;;;;;;19.00;16.73;;;;;;;25.46;14.91;101656.50;5099113;28;20475;-70
2022/03/24 11:13:41;;;;;;;21.00;18.90;;;;;;;24.56;15.40;101653.66;5100100;28;20438;-69
2022/03/24 11:16:09;;;;;;;18.30;16.50;;;;;;;23.51;14.95;101649.69;5099492;28;20785;-69